Terminal Aerodrome Forecast
Issued by NWS

Home | Current Version | Previous Version | Text Only | Print | Product List | Glossary On
Versions: 1 2 3 4 5 6 7 8 9 10 11 12 13 14 15
000
FTUS45 KRIW 030531
TAFLND
TAF
KLND 030531Z 0306/0406 24006KT P6SM SCT080 BKN120
     FM031000 VRB05KT P6SM FEW120
     FM032000 13007KT P6SM VCTS SCT060CB BKN120
     FM040200 34007KT P6SM SCT090 BKN120=

USA.gov is the U.S. government's official web portal to all federal, state and local government web resources and services.